sensor_id;sensor_type;location;lat;lon;timestamp;P1;durP1;ratioP1;P2;durP2;ratioP2
4517;SDS011;2271;49.464;11.070;2023-08-06T00:01:51;2.33;;;2.13;;
4517;SDS011;2271;49.464;11.070;2023-08-06T00:04:17;3.55;;;2.05;;
4517;SDS011;2271;49.464;11.070;2023-08-06T00:06:42;3.30;;;2.45;;
4517;SDS011;2271;49.464;11.070;2023-08-06T00:09:08;4.13;;;2.47;;
4517;SDS011;2271;49.464;11.070;2023-08-06T00:11:34;3.65;;;2.80;;
4517;SDS011;2271;49.464;11.070;2023-08-06T00:13:59;3.92;;;2.65;;
4517;SDS011;2271;49.464;11.070;2023-08-06T00:16:25;2.78;;;1.98;;
4517;SDS011;2271;49.464;11.070;2023-08-06T00:18:50;4.97;;;2.17;;
4517;SDS011;2271;49.464;11.070;2023-08-06T00:21:16;2.42;;;2.22;;
4517;SDS011;2271;49.464;11.070;2023-08-06T00:23:42;2.42;;;2.22;;
4517;SDS011;2271;49.464;11.070;2023-08-06T00:26:07;3.20;;;2.80;;
4517;SDS011;2271;49.464;11.070;2023-08-06T00:28:33;4.07;;;1.92;;
4517;SDS011;2271;49.464;11.070;2023-08-06T00:30:58;2.47;;;1.98;;
4517;SDS011;2271;49.464;11.070;2023-08-06T00:33:24;3.70;;;2.33;;
4517;SDS011;2271;49.464;11.070;2023-08-06T00:35:50;4.25;;;2.40;;
4517;SDS011;2271;49.464;11.070;2023-08-06T00:38:16;2.40;;;2.20;;
4517;SDS011;2271;49.464;11.070;2023-08-06T00:40:42;6.07;;;2.15;;
4517;SDS011;2271;49.464;11.070;2023-08-06T00:43:07;2.65;;;2.25;;
4517;SDS011;2271;49.464;11.070;2023-08-06T00:45:34;2.65;;;2.20;;
4517;SDS011;2271;49.464;11.070;2023-08-06T00:48:01;2.55;;;2.35;;
4517;SDS011;2271;49.464;11.070;2023-08-06T00:50:28;2.60;;;2.40;;
4517;SDS011;2271;49.464;11.070;2023-08-06T00:52:54;2.75;;;2.30;;
4517;SDS011;2271;49.464;11.070;2023-08-06T00:55:20;4.38;;;2.33;;
4517;SDS011;2271;49.464;11.070;2023-08-06T00:57:45;3.42;;;2.30;;
4517;SDS011;2271;49.464;11.070;2023-08-06T01:00:11;2.38;;;2.17;;
4517;SDS011;2271;49.464;11.070;2023-08-06T01:02:37;2.45;;;2.17;;
4517;SDS011;2271;49.464;11.070;2023-08-06T01:05:03;4.18;;;2.72;;
4517;SDS011;2271;49.464;11.070;2023-08-06T01:12:48;3.60;;;2.53;;
4517;SDS011;2271;49.464;11.070;2023-08-06T01:15:28;3.40;;;2.38;;
4517;SDS011;2271;49.464;11.070;2023-08-06T01:17:58;6.95;;;2.67;;
4517;SDS011;2271;49.464;11.070;2023-08-06T01:20:28;3.38;;;2.40;;
4517;SDS011;2271;49.464;11.070;2023-08-06T01:22:54;2.67;;;2.47;;
4517;SDS011;2271;49.464;11.070;2023-08-06T01:25:19;2.90;;;2.20;;
4517;SDS011;2271;49.464;11.070;2023-08-06T01:27:49;2.50;;;2.30;;
4517;SDS011;2271;49.464;11.070;2023-08-06T01:32:50;3.17;;;2.30;;
4517;SDS011;2271;49.464;11.070;2023-08-06T01:35:23;2.42;;;2.22;;
4517;SDS011;2271;49.464;11.070;2023-08-06T01:37:51;2.33;;;2.13;;
4517;SDS011;2271;49.464;11.070;2023-08-06T01:40:17;2.90;;;2.05;;
4517;SDS011;2271;49.464;11.070;2023-08-06T01:42:43;5.05;;;2.20;;
4517;SDS011;2271;49.464;11.070;2023-08-06T01:45:08;2.38;;;1.80;;
4517;SDS011;2271;49.464;11.070;2023-08-06T01:47:35;1.88;;;1.77;;
4517;SDS011;2271;49.464;11.070;2023-08-06T01:50:01;1.92;;;1.63;;
4517;SDS011;2271;49.464;11.070;2023-08-06T01:52:27;1.73;;;1.63;;
4517;SDS011;2271;49.464;11.070;2023-08-06T01:54:53;1.92;;;1.52;;
4517;SDS011;2271;49.464;11.070;2023-08-06T01:57:19;1.90;;;1.60;;
4517;SDS011;2271;49.464;11.070;2023-08-06T01:59:45;2.10;;;1.55;;
4517;SDS011;2271;49.464;11.070;2023-08-06T02:02:10;2.10;;;1.75;;
4517;SDS011;2271;49.464;11.070;2023-08-06T02:04:36;1.77;;;1.52;;
4517;SDS011;2271;49.464;11.070;2023-08-06T02:07:01;1.63;;;1.45;;
4517;SDS011;2271;49.464;11.070;2023-08-06T02:09:27;5.88;;;1.65;;
4517;SDS011;2271;49.464;11.070;2023-08-06T02:11:53;4.43;;;1.85;;
4517;SDS011;2271;49.464;11.070;2023-08-06T02:14:18;2.55;;;1.88;;
4517;SDS011;2271;49.464;11.070;2023-08-06T02:16:44;2.33;;;1.77;;
4517;SDS011;2271;49.464;11.070;2023-08-06T02:19:09;1.67;;;1.50;;
4517;SDS011;2271;49.464;11.070;2023-08-06T02:21:35;3.72;;;1.60;;
4517;SDS011;2271;49.464;11.070;2023-08-06T02:24:00;2.67;;;1.55;;
4517;SDS011;2271;49.464;11.070;2023-08-06T02:26:27;1.92;;;1.48;;
4517;SDS011;2271;49.464;11.070;2023-08-06T02:28:52;4.03;;;1.95;;
4517;SDS011;2271;49.464;11.070;2023-08-06T02:31:18;1.63;;;1.52;;
4517;SDS011;2271;49.464;11.070;2023-08-06T02:33:43;2.10;;;1.63;;
4517;SDS011;2271;49.464;11.070;2023-08-06T02:36:09;1.65;;;1.50;;
4517;SDS011;2271;49.464;11.070;2023-08-06T02:38:34;2.50;;;1.80;;
4517;SDS011;2271;49.464;11.070;2023-08-06T02:41:03;3.38;;;2.22;;
4517;SDS011;2271;49.464;11.070;2023-08-06T02:43:29;1.67;;;1.42;;
4517;SDS011;2271;49.464;11.070;2023-08-06T02:45:58;2.20;;;1.70;;
4517;SDS011;2271;49.464;11.070;2023-08-06T02:48:24;2.28;;;1.48;;
4517;SDS011;2271;49.464;11.070;2023-08-06T02:50:50;4.13;;;1.52;;
4517;SDS011;2271;49.464;11.070;2023-08-06T02:53:16;1.40;;;1.23;;
4517;SDS011;2271;49.464;11.070;2023-08-06T02:55:45;3.42;;;1.90;;
4517;SDS011;2271;49.464;11.070;2023-08-06T02:58:15;2.10;;;1.67;;
4517;SDS011;2271;49.464;11.070;2023-08-06T03:00:41;1.65;;;1.55;;
4517;SDS011;2271;49.464;11.070;2023-08-06T03:03:08;2.65;;;1.45;;
4517;SDS011;2271;49.464;11.070;2023-08-06T03:05:33;2.38;;;1.52;;
4517;SDS011;2271;49.464;11.070;2023-08-06T03:07:59;1.63;;;1.52;;
4517;SDS011;2271;49.464;11.070;2023-08-06T03:10:25;1.80;;;1.35;;
4517;SDS011;2271;49.464;11.070;2023-08-06T03:12:50;2.40;;;1.58;;
4517;SDS011;2271;49.464;11.070;2023-08-06T03:15:16;3.65;;;1.48;;
4517;SDS011;2271;49.464;11.070;2023-08-06T03:17:41;3.83;;;2.10;;
4517;SDS011;2271;49.464;11.070;2023-08-06T03:20:09;1.70;;;1.60;;
4517;SDS011;2271;49.464;11.070;2023-08-06T03:22:35;1.88;;;1.40;;
4517;SDS011;2271;49.464;11.070;2023-08-06T03:25:00;1.80;;;1.70;;
4517;SDS011;2271;49.464;11.070;2023-08-06T03:27:26;1.85;;;1.75;;
4517;SDS011;2271;49.464;11.070;2023-08-06T03:29:51;2.03;;;1.73;;
4517;SDS011;2271;49.464;11.070;2023-08-06T03:32:17;2.75;;;1.92;;
4517;SDS011;2271;49.464;11.070;2023-08-06T03:34:43;2.63;;;1.88;;
4517;SDS011;2271;49.464;11.070;2023-08-06T03:37:08;2.35;;;1.88;;
4517;SDS011;2271;49.464;11.070;2023-08-06T03:39:34;2.30;;;1.60;;
4517;SDS011;2271;49.464;11.070;2023-08-06T03:41:59;2.50;;;1.95;;
4517;SDS011;2271;49.464;11.070;2023-08-06T03:44:25;3.47;;;1.92;;
4517;SDS011;2271;49.464;11.070;2023-08-06T03:46:52;3.88;;;2.22;;
4517;SDS011;2271;49.464;11.070;2023-08-06T03:49:17;2.40;;;2.17;;
4517;SDS011;2271;49.464;11.070;2023-08-06T03:51:43;3.92;;;2.33;;
4517;SDS011;2271;49.464;11.070;2023-08-06T03:54:08;2.72;;;2.53;;
4517;SDS011;2271;49.464;11.070;2023-08-06T03:56:34;1.95;;;1.75;;
4517;SDS011;2271;49.464;11.070;2023-08-06T03:59:00;2.03;;;1.88;;
4517;SDS011;2271;49.464;11.070;2023-08-06T04:01:25;2.70;;;2.00;;
4517;SDS011;2271;49.464;11.070;2023-08-06T04:03:51;2.70;;;2.00;;
4517;SDS011;2271;49.464;11.070;2023-08-06T04:06:16;2.35;;;1.45;;
4517;SDS011;2271;49.464;11.070;2023-08-06T04:08:42;3.17;;;1.90;;
4517;SDS011;2271;49.464;11.070;2023-08-06T04:11:08;3.65;;;2.05;;
4517;SDS011;2271;49.464;11.070;2023-08-06T04:13:33;3.97;;;1.80;;
4517;SDS011;2271;49.464;11.070;2023-08-06T04:16:02;1.92;;;1.83;;
4517;SDS011;2271;49.464;11.070;2023-08-06T04:18:28;3.03;;;2.30;;
4517;SDS011;2271;49.464;11.070;2023-08-06T04:20:54;2.10;;;1.90;;
4517;SDS011;2271;49.464;11.070;2023-08-06T04:23:22;3.53;;;1.70;;
4517;SDS011;2271;49.464;11.070;2023-08-06T04:25:48;2.40;;;1.80;;
4517;SDS011;2271;49.464;11.070;2023-08-06T04:28:14;2.83;;;1.83;;
4517;SDS011;2271;49.464;11.070;2023-08-06T04:30:39;2.30;;;1.88;;
4517;SDS011;2271;49.464;11.070;2023-08-06T04:33:05;4.15;;;2.10;;
4517;SDS011;2271;49.464;11.070;2023-08-06T04:35:31;1.45;;;1.35;;
4517;SDS011;2271;49.464;11.070;2023-08-06T04:37:56;1.80;;;1.65;;
4517;SDS011;2271;49.464;11.070;2023-08-06T04:40:22;2.55;;;1.85;;
4517;SDS011;2271;49.464;11.070;2023-08-06T04:42:47;1.95;;;1.85;;
4517;SDS011;2271;49.464;11.070;2023-08-06T04:45:13;2.33;;;2.13;;
4517;SDS011;2271;49.464;11.070;2023-08-06T04:47:39;2.42;;;1.40;;
4517;SDS011;2271;49.464;11.070;2023-08-06T04:50:04;1.70;;;1.25;;
4517;SDS011;2271;49.464;11.070;2023-08-06T04:52:30;1.70;;;1.60;;
4517;SDS011;2271;49.464;11.070;2023-08-06T04:54:57;2.42;;;2.13;;
4517;SDS011;2271;49.464;11.070;2023-08-06T04:57:23;2.20;;;2.00;;
4517;SDS011;2271;49.464;11.070;2023-08-06T04:59:48;2.28;;;1.85;;
4517;SDS011;2271;49.464;11.070;2023-08-06T05:02:14;2.92;;;1.90;;
4517;SDS011;2271;49.464;11.070;2023-08-06T05:04:40;2.05;;;1.85;;
4517;SDS011;2271;49.464;11.070;2023-08-06T05:07:05;2.00;;;1.77;;
4517;SDS011;2271;49.464;11.070;2023-08-06T05:09:31;1.70;;;1.50;;
4517;SDS011;2271;49.464;11.070;2023-08-06T05:11:57;2.92;;;2.10;;
4517;SDS011;2271;49.464;11.070;2023-08-06T05:14:25;2.28;;;2.08;;
4517;SDS011;2271;49.464;11.070;2023-08-06T05:16:51;1.67;;;1.58;;
4517;SDS011;2271;49.464;11.070;2023-08-06T05:19:17;1.73;;;1.63;;
4517;SDS011;2271;49.464;11.070;2023-08-06T05:21:42;2.80;;;1.95;;
4517;SDS011;2271;49.464;11.070;2023-08-06T05:24:08;1.75;;;1.65;;
4517;SDS011;2271;49.464;11.070;2023-08-06T05:26:34;2.20;;;2.00;;
4517;SDS011;2271;49.464;11.070;2023-08-06T05:29:00;2.30;;;2.10;;
4517;SDS011;2271;49.464;11.070;2023-08-06T05:31:25;2.67;;;2.05;;
4517;SDS011;2271;49.464;11.070;2023-08-06T05:33:51;1.58;;;1.42;;
4517;SDS011;2271;49.464;11.070;2023-08-06T05:36:17;2.25;;;2.05;;
4517;SDS011;2271;49.464;11.070;2023-08-06T05:38:42;2.38;;;1.88;;
4517;SDS011;2271;49.464;11.070;2023-08-06T05:41:08;3.72;;;2.30;;
4517;SDS011;2271;49.464;11.070;2023-08-06T05:43:34;2.97;;;2.15;;
4517;SDS011;2271;49.464;11.070;2023-08-06T05:45:59;2.65;;;1.92;;
4517;SDS011;2271;49.464;11.070;2023-08-06T05:48:25;2.67;;;2.25;;
4517;SDS011;2271;49.464;11.070;2023-08-06T05:50:52;3.97;;;1.92;;
4517;SDS011;2271;49.464;11.070;2023-08-06T05:53:18;3.45;;;1.75;;
4517;SDS011;2271;49.464;11.070;2023-08-06T05:55:44;1.75;;;1.65;;
4517;SDS011;2271;49.464;11.070;2023-08-06T05:58:10;2.40;;;2.17;;
4517;SDS011;2271;49.464;11.070;2023-08-06T06:00:36;2.28;;;2.08;;
4517;SDS011;2271;49.464;11.070;2023-08-06T06:03:01;2.65;;;1.95;;
4517;SDS011;2271;49.464;11.070;2023-08-06T06:05:27;2.67;;;1.70;;
4517;SDS011;2271;49.464;11.070;2023-08-06T06:07:53;4.88;;;2.20;;
4517;SDS011;2271;49.464;11.070;2023-08-06T06:10:19;2.80;;;1.48;;
4517;SDS011;2271;49.464;11.070;2023-08-06T06:12:44;1.88;;;1.77;;
4517;SDS011;2271;49.464;11.070;2023-08-06T06:15:10;2.55;;;1.75;;
4517;SDS011;2271;49.464;11.070;2023-08-06T06:17:36;1.65;;;1.55;;
4517;SDS011;2271;49.464;11.070;2023-08-06T06:20:01;3.03;;;2.15;;
4517;SDS011;2271;49.464;11.070;2023-08-06T06:22:29;3.72;;;2.00;;
4517;SDS011;2271;49.464;11.070;2023-08-06T06:24:55;2.17;;;1.77;;
4517;SDS011;2271;49.464;11.070;2023-08-06T06:27:21;2.70;;;1.80;;
4517;SDS011;2271;49.464;11.070;2023-08-06T06:29:46;4.78;;;1.80;;
4517;SDS011;2271;49.464;11.070;2023-08-06T06:32:12;2.85;;;1.55;;
4517;SDS011;2271;49.464;11.070;2023-08-06T06:34:38;2.17;;;1.60;;
4517;SDS011;2271;49.464;11.070;2023-08-06T06:37:03;1.70;;;1.60;;
4517;SDS011;2271;49.464;11.070;2023-08-06T06:39:29;1.95;;;1.73;;
4517;SDS011;2271;49.464;11.070;2023-08-06T06:41:55;4.00;;;1.90;;
4517;SDS011;2271;49.464;11.070;2023-08-06T06:44:20;1.65;;;1.55;;
4517;SDS011;2271;49.464;11.070;2023-08-06T06:46:46;1.85;;;1.70;;
4517;SDS011;2271;49.464;11.070;2023-08-06T06:49:12;4.20;;;1.45;;
4517;SDS011;2271;49.464;11.070;2023-08-06T06:51:37;1.70;;;1.55;;
4517;SDS011;2271;49.464;11.070;2023-08-06T06:54:03;2.28;;;1.70;;
4517;SDS011;2271;49.464;11.070;2023-08-06T06:56:28;2.42;;;1.75;;
4517;SDS011;2271;49.464;11.070;2023-08-06T06:58:54;2.10;;;1.85;;
4517;SDS011;2271;49.464;11.070;2023-08-06T07:01:20;2.97;;;1.90;;
4517;SDS011;2271;49.464;11.070;2023-08-06T07:03:45;2.10;;;1.67;;
4517;SDS011;2271;49.464;11.070;2023-08-06T07:06:11;2.30;;;1.52;;
4517;SDS011;2271;49.464;11.070;2023-08-06T07:08:37;2.08;;;1.90;;
4517;SDS011;2271;49.464;11.070;2023-08-06T07:11:03;1.83;;;1.67;;
4517;SDS011;2271;49.464;11.070;2023-08-06T07:13:30;2.63;;;1.90;;
4517;SDS011;2271;49.464;11.070;2023-08-06T07:15:57;3.60;;;2.20;;
4517;SDS011;2271;49.464;11.070;2023-08-06T07:18:23;1.67;;;1.58;;
4517;SDS011;2271;49.464;11.070;2023-08-06T07:20:52;1.77;;;1.67;;
4517;SDS011;2271;49.464;11.070;2023-08-06T07:23:20;2.22;;;2.03;;
4517;SDS011;2271;49.464;11.070;2023-08-06T07:25:47;1.77;;;1.63;;
4517;SDS011;2271;49.464;11.070;2023-08-06T07:28:13;2.35;;;2.05;;
4517;SDS011;2271;49.464;11.070;2023-08-06T07:30:40;2.90;;;1.70;;
4517;SDS011;2271;49.464;11.070;2023-08-06T07:33:06;3.38;;;2.13;;
4517;SDS011;2271;49.464;11.070;2023-08-06T07:35:32;1.42;;;1.33;;
4517;SDS011;2271;49.464;11.070;2023-08-06T07:37:58;2.60;;;1.80;;
4517;SDS011;2271;49.464;11.070;2023-08-06T07:40:24;2.47;;;2.28;;
4517;SDS011;2271;49.464;11.070;2023-08-06T07:42:49;1.45;;;1.35;;
4517;SDS011;2271;49.464;11.070;2023-08-06T07:45:15;4.00;;;1.83;;
4517;SDS011;2271;49.464;11.070;2023-08-06T07:47:41;2.15;;;1.95;;
4517;SDS011;2271;49.464;11.070;2023-08-06T07:50:07;2.90;;;1.70;;
4517;SDS011;2271;49.464;11.070;2023-08-06T07:52:34;1.92;;;1.38;;
4517;SDS011;2271;49.464;11.070;2023-08-06T07:54:59;3.15;;;1.50;;
4517;SDS011;2271;49.464;11.070;2023-08-06T07:57:26;3.15;;;1.48;;
4517;SDS011;2271;49.464;11.070;2023-08-06T07:59:52;2.33;;;1.23;;
4517;SDS011;2271;49.464;11.070;2023-08-06T08:02:19;2.58;;;1.50;;
4517;SDS011;2271;49.464;11.070;2023-08-06T08:04:44;1.40;;;1.20;;
4517;SDS011;2271;49.464;11.070;2023-08-06T08:07:12;2.47;;;1.33;;
4517;SDS011;2271;49.464;11.070;2023-08-06T08:09:38;1.35;;;1.20;;
4517;SDS011;2271;49.464;11.070;2023-08-06T08:12:04;2.17;;;1.50;;
4517;SDS011;2271;49.464;11.070;2023-08-06T08:14:30;2.58;;;1.20;;
4517;SDS011;2271;49.464;11.070;2023-08-06T08:17:00;1.88;;;1.42;;
4517;SDS011;2271;49.464;11.070;2023-08-06T08:19:27;1.80;;;1.27;;
4517;SDS011;2271;49.464;11.070;2023-08-06T08:21:53;5.28;;;1.42;;
4517;SDS011;2271;49.464;11.070;2023-08-06T08:24:19;1.65;;;1.25;;
4517;SDS011;2271;49.464;11.070;2023-08-06T08:26:46;3.22;;;1.00;;
4517;SDS011;2271;49.464;11.070;2023-08-06T08:29:12;1.85;;;0.98;;
4517;SDS011;2271;49.464;11.070;2023-08-06T08:31:37;1.58;;;0.82;;
4517;SDS011;2271;49.464;11.070;2023-08-06T08:34:04;1.20;;;0.90;;
4517;SDS011;2271;49.464;11.070;2023-08-06T08:36:31;1.05;;;0.82;;
4517;SDS011;2271;49.464;11.070;2023-08-06T08:38:56;2.60;;;0.95;;
4517;SDS011;2271;49.464;11.070;2023-08-06T08:41:22;1.33;;;0.82;;
4517;SDS011;2271;49.464;11.070;2023-08-06T08:43:51;1.58;;;0.98;;
4517;SDS011;2271;49.464;11.070;2023-08-06T08:46:18;0.40;;;0.40;;
4517;SDS011;2271;49.464;11.070;2023-08-06T08:48:44;0.50;;;0.50;;
4517;SDS011;2271;49.464;11.070;2023-08-06T08:51:11;0.85;;;0.60;;
4517;SDS011;2271;49.464;11.070;2023-08-06T08:53:37;1.17;;;0.50;;
4517;SDS011;2271;49.464;11.070;2023-08-06T08:56:04;0.40;;;0.40;;
4517;SDS011;2271;49.464;11.070;2023-08-06T08:58:30;1.05;;;0.55;;
4517;SDS011;2271;49.464;11.070;2023-08-06T09:00:57;0.40;;;0.40;;
4517;SDS011;2271;49.464;11.070;2023-08-06T09:03:23;0.70;;;0.45;;
4517;SDS011;2271;49.464;11.070;2023-08-06T09:05:50;0.60;;;0.55;;
4517;SDS011;2271;49.464;11.070;2023-08-06T09:08:21;1.20;;;0.50;;
4517;SDS011;2271;49.464;11.070;2023-08-06T09:10:52;0.95;;;0.43;;
4517;SDS011;2271;49.464;11.070;2023-08-06T09:13:19;0.47;;;0.47;;
4517;SDS011;2271;49.464;11.070;2023-08-06T09:15:46;0.70;;;0.40;;
4517;SDS011;2271;49.464;11.070;2023-08-06T09:18:11;2.35;;;0.55;;
4517;SDS011;2271;49.464;11.070;2023-08-06T09:20:40;1.17;;;0.50;;
4517;SDS011;2271;49.464;11.070;2023-08-06T09:23:07;0.88;;;0.50;;
4517;SDS011;2271;49.464;11.070;2023-08-06T09:25:36;0.60;;;0.50;;
4517;SDS011;2271;49.464;11.070;2023-08-06T09:28:05;1.15;;;0.45;;
4517;SDS011;2271;49.464;11.070;2023-08-06T09:30:32;0.60;;;0.50;;
4517;SDS011;2271;49.464;11.070;2023-08-06T09:32:59;0.38;;;0.32;;
4517;SDS011;2271;49.464;11.070;2023-08-06T09:35:25;0.40;;;0.40;;
4517;SDS011;2271;49.464;11.070;2023-08-06T09:37:55;0.40;;;0.40;;
4517;SDS011;2271;49.464;11.070;2023-08-06T09:42:49;1.15;;;0.40;;
4517;SDS011;2271;49.464;11.070;2023-08-06T09:45:16;0.68;;;0.40;;
4517;SDS011;2271;49.464;11.070;2023-08-06T09:47:41;1.60;;;0.60;;
4517;SDS011;2271;49.464;11.070;2023-08-06T09:50:17;0.30;;;0.30;;
4517;SDS011;2271;49.464;11.070;2023-08-06T09:52:44;1.00;;;0.40;;
4517;SDS011;2271;49.464;11.070;2023-08-06T09:55:13;0.57;;;0.40;;
4517;SDS011;2271;49.464;11.070;2023-08-06T09:57:40;0.52;;;0.52;;
4517;SDS011;2271;49.464;11.070;2023-08-06T10:00:07;8.38;;;0.70;;
4517;SDS011;2271;49.464;11.070;2023-08-06T10:02:39;0.63;;;0.50;;
4517;SDS011;2271;49.464;11.070;2023-08-06T10:05:06;0.60;;;0.50;;
4517;SDS011;2271;49.464;11.070;2023-08-06T10:07:35;1.15;;;0.63;;
4517;SDS011;2271;49.464;11.070;2023-08-06T10:10:02;0.82;;;0.60;;
4517;SDS011;2271;49.464;11.070;2023-08-06T10:12:28;0.50;;;0.40;;
4517;SDS011;2271;49.464;11.070;2023-08-06T10:14:59;0.30;;;0.30;;
4517;SDS011;2271;49.464;11.070;2023-08-06T10:17:26;0.30;;;0.30;;
4517;SDS011;2271;49.464;11.070;2023-08-06T10:19:53;1.75;;;0.40;;
4517;SDS011;2271;49.464;11.070;2023-08-06T10:22:22;1.13;;;0.60;;
4517;SDS011;2271;49.464;11.070;2023-08-06T10:24:50;0.30;;;0.30;;
4517;SDS011;2271;49.464;11.070;2023-08-06T10:27:19;0.50;;;0.50;;
4517;SDS011;2271;49.464;11.070;2023-08-06T10:32:49;0.98;;;0.40;;
4517;SDS011;2271;49.464;11.070;2023-08-06T10:38:15;0.40;;;0.40;;
4517;SDS011;2271;49.464;11.070;2023-08-06T10:41:01;0.55;;;0.40;;
4517;SDS011;2271;49.464;11.070;2023-08-06T10:43:34;0.57;;;0.57;;
4517;SDS011;2271;49.464;11.070;2023-08-06T10:46:03;1.17;;;0.50;;
4517;SDS011;2271;49.464;11.070;2023-08-06T10:48:35;0.30;;;0.30;;
4517;SDS011;2271;49.464;11.070;2023-08-06T10:51:02;0.47;;;0.32;;
4517;SDS011;2271;49.464;11.070;2023-08-06T10:53:29;0.32;;;0.32;;
4517;SDS011;2271;49.464;11.070;2023-08-06T10:55:55;0.32;;;0.30;;
4517;SDS011;2271;49.464;11.070;2023-08-06T10:58:21;1.05;;;0.30;;
4517;SDS011;2271;49.464;11.070;2023-08-06T11:00:46;0.30;;;0.30;;
4517;SDS011;2271;49.464;11.070;2023-08-06T11:03:12;0.40;;;0.40;;
4517;SDS011;2271;49.464;11.070;2023-08-06T11:05:38;0.60;;;0.60;;
4517;SDS011;2271;49.464;11.070;2023-08-06T11:08:04;1.15;;;0.50;;
4517;SDS011;2271;49.464;11.070;2023-08-06T11:10:29;0.40;;;0.40;;
4517;SDS011;2271;49.464;11.070;2023-08-06T11:13:01;0.60;;;0.30;;
4517;SDS011;2271;49.464;11.070;2023-08-06T11:15:32;0.40;;;0.40;;
4517;SDS011;2271;49.464;11.070;2023-08-06T11:17:58;0.30;;;0.30;;
4517;SDS011;2271;49.464;11.070;2023-08-06T11:20:24;0.20;;;0.20;;
4517;SDS011;2271;49.464;11.070;2023-08-06T11:22:50;0.40;;;0.40;;
4517;SDS011;2271;49.464;11.070;2023-08-06T11:25:15;0.70;;;0.45;;
4517;SDS011;2271;49.464;11.070;2023-08-06T11:27:45;4.10;;;0.50;;
4517;SDS011;2271;49.464;11.070;2023-08-06T11:30:10;0.30;;;0.30;;
4517;SDS011;2271;49.464;11.070;2023-08-06T11:32:46;0.20;;;0.20;;
4517;SDS011;2271;49.464;11.070;2023-08-06T11:35:16;0.30;;;0.30;;
4517;SDS011;2271;49.464;11.070;2023-08-06T11:37:45;0.32;;;0.32;;
4517;SDS011;2271;49.464;11.070;2023-08-06T11:40:11;0.30;;;0.30;;
4517;SDS011;2271;49.464;11.070;2023-08-06T11:42:40;0.30;;;0.30;;
4517;SDS011;2271;49.464;11.070;2023-08-06T11:45:05;0.68;;;0.30;;
4517;SDS011;2271;49.464;11.070;2023-08-06T11:47:33;0.30;;;0.30;;
4517;SDS011;2271;49.464;11.070;2023-08-06T11:49:59;2.15;;;0.60;;
4517;SDS011;2271;49.464;11.070;2023-08-06T11:52:30;0.40;;;0.30;;
4517;SDS011;2271;49.464;11.070;2023-08-06T11:55:03;0.30;;;0.30;;
4517;SDS011;2271;49.464;11.070;2023-08-06T11:57:36;0.30;;;0.30;;
4517;SDS011;2271;49.464;11.070;2023-08-06T12:00:10;0.20;;;0.20;;
4517;SDS011;2271;49.464;11.070;2023-08-06T12:02:41;0.55;;;0.25;;
4517;SDS011;2271;49.464;11.070;2023-08-06T12:10:38;0.25;;;0.25;;
4517;SDS011;2271;49.464;11.070;2023-08-06T12:13:04;0.85;;;0.60;;
4517;SDS011;2271;49.464;11.070;2023-08-06T12:15:29;4.30;;;0.50;;
4517;SDS011;2271;49.464;11.070;2023-08-06T12:17:55;0.60;;;0.38;;
4517;SDS011;2271;49.464;11.070;2023-08-06T12:20:21;1.85;;;0.40;;
4517;SDS011;2271;49.464;11.070;2023-08-06T12:22:46;0.57;;;0.40;;
4517;SDS011;2271;49.464;11.070;2023-08-06T12:25:12;0.30;;;0.30;;
4517;SDS011;2271;49.464;11.070;2023-08-06T12:27:39;0.32;;;0.30;;
4517;SDS011;2271;49.464;11.070;2023-08-06T12:30:07;1.90;;;0.30;;
4517;SDS011;2271;49.464;11.070;2023-08-06T12:32:33;0.40;;;0.40;;
4517;SDS011;2271;49.464;11.070;2023-08-06T12:34:59;0.63;;;0.63;;
4517;SDS011;2271;49.464;11.070;2023-08-06T12:37:25;0.40;;;0.40;;
4517;SDS011;2271;49.464;11.070;2023-08-06T12:39:51;0.40;;;0.38;;
4517;SDS011;2271;49.464;11.070;2023-08-06T12:42:17;0.40;;;0.40;;
4517;SDS011;2271;49.464;11.070;2023-08-06T12:44:43;1.40;;;0.30;;
4517;SDS011;2271;49.464;11.070;2023-08-06T12:47:08;0.22;;;0.22;;
4517;SDS011;2271;49.464;11.070;2023-08-06T12:49:34;0.52;;;0.50;;
4517;SDS011;2271;49.464;11.070;2023-08-06T12:52:00;0.30;;;0.30;;
4517;SDS011;2271;49.464;11.070;2023-08-06T12:54:26;0.30;;;0.30;;
4517;SDS011;2271;49.464;11.070;2023-08-06T12:56:53;0.20;;;0.20;;
4517;SDS011;2271;49.464;11.070;2023-08-06T12:59:18;0.35;;;0.35;;
4517;SDS011;2271;49.464;11.070;2023-08-06T13:01:44;0.30;;;0.30;;
4517;SDS011;2271;49.464;11.070;2023-08-06T13:04:11;0.40;;;0.40;;
4517;SDS011;2271;49.464;11.070;2023-08-06T13:06:37;0.55;;;0.50;;
4517;SDS011;2271;49.464;11.070;2023-08-06T13:09:08;0.40;;;0.40;;
4517;SDS011;2271;49.464;11.070;2023-08-06T13:11:35;0.30;;;0.30;;
4517;SDS011;2271;49.464;11.070;2023-08-06T13:16:32;0.20;;;0.20;;
4517;SDS011;2271;49.464;11.070;2023-08-06T13:18:58;0.30;;;0.30;;
4517;SDS011;2271;49.464;11.070;2023-08-06T13:21:31;0.30;;;0.30;;
4517;SDS011;2271;49.464;11.070;2023-08-06T13:24:17;0.30;;;0.30;;
4517;SDS011;2271;49.464;11.070;2023-08-06T13:26:42;0.30;;;0.30;;
4517;SDS011;2271;49.464;11.070;2023-08-06T13:29:08;0.20;;;0.20;;
4517;SDS011;2271;49.464;11.070;2023-08-06T13:31:34;0.65;;;0.28;;
4517;SDS011;2271;49.464;11.070;2023-08-06T13:34:00;0.30;;;0.30;;
4517;SDS011;2271;49.464;11.070;2023-08-06T13:36:26;0.93;;;0.68;;
4517;SDS011;2271;49.464;11.070;2023-08-06T13:38:52;0.20;;;0.20;;
4517;SDS011;2271;49.464;11.070;2023-08-06T13:41:17;0.22;;;0.22;;
4517;SDS011;2271;49.464;11.070;2023-08-06T13:43:43;1.17;;;0.55;;
4517;SDS011;2271;49.464;11.070;2023-08-06T13:46:09;0.20;;;0.20;;
4517;SDS011;2271;49.464;11.070;2023-08-06T13:48:41;0.20;;;0.20;;
4517;SDS011;2271;49.464;11.070;2023-08-06T13:51:07;0.30;;;0.28;;
4517;SDS011;2271;49.464;11.070;2023-08-06T13:53:32;0.30;;;0.30;;
4517;SDS011;2271;49.464;11.070;2023-08-06T13:56:00;1.23;;;0.40;;
4517;SDS011;2271;49.464;11.070;2023-08-06T13:58:25;1.50;;;0.38;;
4517;SDS011;2271;49.464;11.070;2023-08-06T14:00:51;3.65;;;0.40;;
4517;SDS011;2271;49.464;11.070;2023-08-06T14:03:19;0.30;;;0.30;;
4517;SDS011;2271;49.464;11.070;2023-08-06T14:05:45;3.10;;;0.45;;
4517;SDS011;2271;49.464;11.070;2023-08-06T14:08:10;0.30;;;0.30;;
4517;SDS011;2271;49.464;11.070;2023-08-06T14:10:36;0.40;;;0.40;;
4517;SDS011;2271;49.464;11.070;2023-08-06T14:13:02;0.32;;;0.32;;
4517;SDS011;2271;49.464;11.070;2023-08-06T14:15:27;0.30;;;0.30;;
4517;SDS011;2271;49.464;11.070;2023-08-06T14:17:53;0.43;;;0.40;;
4517;SDS011;2271;49.464;11.070;2023-08-06T14:20:18;0.80;;;0.32;;
4517;SDS011;2271;49.464;11.070;2023-08-06T14:22:44;0.40;;;0.40;;
4517;SDS011;2271;49.464;11.070;2023-08-06T14:25:10;0.20;;;0.20;;
4517;SDS011;2271;49.464;11.070;2023-08-06T14:27:35;0.63;;;0.38;;
4517;SDS011;2271;49.464;11.070;2023-08-06T14:30:03;0.30;;;0.30;;
4517;SDS011;2271;49.464;11.070;2023-08-06T14:32:32;0.38;;;0.38;;
4517;SDS011;2271;49.464;11.070;2023-08-06T14:34:58;0.55;;;0.40;;
4517;SDS011;2271;49.464;11.070;2023-08-06T14:37:24;0.30;;;0.30;;
4517;SDS011;2271;49.464;11.070;2023-08-06T14:39:50;0.30;;;0.30;;
4517;SDS011;2271;49.464;11.070;2023-08-06T14:42:16;0.70;;;0.32;;
4517;SDS011;2271;49.464;11.070;2023-08-06T14:44:42;0.40;;;0.40;;
4517;SDS011;2271;49.464;11.070;2023-08-06T14:47:08;0.30;;;0.30;;
4517;SDS011;2271;49.464;11.070;2023-08-06T14:49:33;0.43;;;0.40;;
4517;SDS011;2271;49.464;11.070;2023-08-06T14:51:59;0.60;;;0.45;;
4517;SDS011;2271;49.464;11.070;2023-08-06T14:54:26;0.20;;;0.20;;
4517;SDS011;2271;49.464;11.070;2023-08-06T14:56:52;1.05;;;0.40;;
4517;SDS011;2271;49.464;11.070;2023-08-06T14:59:18;2.28;;;0.30;;
4517;SDS011;2271;49.464;11.070;2023-08-06T15:01:43;0.95;;;0.40;;
4517;SDS011;2271;49.464;11.070;2023-08-06T15:04:09;1.95;;;0.45;;
4517;SDS011;2271;49.464;11.070;2023-08-06T15:06:35;0.40;;;0.40;;
4517;SDS011;2271;49.464;11.070;2023-08-06T15:09:00;0.40;;;0.40;;
4517;SDS011;2271;49.464;11.070;2023-08-06T15:11:26;0.68;;;0.65;;
4517;SDS011;2271;49.464;11.070;2023-08-06T15:13:52;0.40;;;0.40;;
4517;SDS011;2271;49.464;11.070;2023-08-06T15:16:17;0.45;;;0.40;;
4517;SDS011;2271;49.464;11.070;2023-08-06T15:18:43;1.30;;;0.55;;
4517;SDS011;2271;49.464;11.070;2023-08-06T15:21:09;0.40;;;0.40;;